Date,TemperatureHighF,TemperatureAvgF,TemperatureLowF,DewpointHighF,DewpointAvgF,DewpointLowF,HumidityHigh,HumidityAvg,HumidityLow,PressureMaxIn,PressureMinIn,WindSpeedMaxMPH,WindSpeedAvgMPH,GustSpeedMaxMPH,PrecipitationSumIn
2014-1-1,24.4,21.9,19.4,18.8,13.3,8.4,85,69,60,29.77,29.47,10,6,16,0.00
2014-1-2,35.1,23.5,13.8,13.0,7.5,1.7,63,50,39,29.74,29.56,10,2,13,0.00
2014-1-3,48.0,33.9,18.9,20.1,14.1,7.0,68,45,31,29.68,29.15,10,4,17,0.00
2014-1-4,52.0,43.0,28.9,38.3,28.4,17.9,74,57,40,29.18,29.00,13,4,19,0.00
2014-1-5,34.9,20.7,9.3,30.8,8.1,-8.5,86,59,40,29.83,29.18,11,5,17,0.00
2014-1-6,21.0,10.8,3.2,-3.0,-8.9,-13.2,42,38,33,29.95,29.68,8,2,12,0.00
2014-1-7,48.4,30.0,8.6,18.7,6.6,-12.0,61,37,28,29.71,29.42,10,3,15,0.00
2014-1-8,85.8,48.2,33.1,83.5,36.1,8.8,95,66,34,29.50,29.42,8,2,13,0.00
2014-1-9,118.0,93.1,58.3,99.9,86.6,56.6,95,92,89,29.47,29.21,6,1,10,0.00
2014-1-10,140.0,86.3,38.3,99.9,68.6,24.1,93,75,36,29.21,28.85,9,2,14,0.03
2014-1-11,59.9,44.8,33.6,48.9,28.7,22.1,92,58,27,29.27,29.03,11,2,15,0.00
2014-1-12,73.0,55.7,33.6,41.0,29.5,23.0,84,40,22,29.21,28.88,15,6,22,0.00
2014-1-13,60.4,48.8,39.4,30.2,27.0,23.3,65,44,27,29.24,29.00,8,3,11,0.00
2014-1-15,59.2,42.6,39.6,25.2,19.6,17.6,43,39,27,29.33,29.18,7,2,8,0.00
2014-1-16,58.1,47.6,35.6,27.7,19.4,9.8,52,33,25,29.42,29.15,14,4,20,0.00
2014-1-17,47.3,36.1,27.5,15.9,11.5,5.9,54,36,28,29.56,29.33,10,3,15,0.00
2014-1-18,63.3,47.5,26.8,26.1,19.7,11.8,55,34,24,29.42,29.18,13,4,20,0.00
2014-1-19,66.6,47.0,27.0,28.8,22.6,16.9,82,42,23,29.44,29.15,9,3,12,0.00
2014-1-20,64.2,49.5,32.2,28.4,22.5,11.4,72,36,24,29.53,29.12,12,3,17,0.00
2014-1-21,38.8,26.4,17.4,10.8,1.0,-2.3,44,33,25,29.74,29.39,11,3,19,0.00
2014-1-22,49.5,33.6,18.7,20.5,10.9,1.5,63,40,29,29.62,29.36,13,3,17,0.00
2014-1-23,30.9,16.7,5.0,11.1,-5.3,-14.9,43,35,33,30.04,29.59,16,6,23,0.00
2014-1-24,30.6,21.4,2.3,3.1,-3.1,-17.1,46,32,30,29.98,29.27,9,4,12,0.00
2014-1-25,66.2,51.3,30.6,31.9,19.8,2.9,35,29,26,29.33,29.15,8,3,15,0.00
2014-1-26,66.0,61.3,35.6,30.2,28.1,7.7,43,29,26,29.36,28.94,21,2,31,0.00
2014-1-27,35.4,22.4,18.9,7.8,-2.9,-5.8,33,32,29,29.71,29.36,16,8,24,0.00
2014-1-28,33.1,22.0,15.8,4.6,-0.8,-5.6,53,36,28,29.80,29.59,12,2,15,0.00
2014-1-29,42.1,30.9,12.2,13.7,8.1,1.2,64,40,30,29.62,29.27,8,4,12,0.00
2014-1-30,52.9,41.0,33.8,29.6,17.0,6.7,66,38,30,29.27,29.06,12,4,18,0.00
2014-1-31,79.0,49.6,39.6,76.1,42.2,27.5,94,76,57,29.15,29.06,8,2,14,0.00
2014-2-1,83.5,48.2,30.7,80.7,43.3,20.2,96,83,65,29.44,29.06,12,3,17,0.00
2014-2-2,37.4,26.9,18.3,33.3,15.8,9.0,86,63,46,29.59,29.42,13,4,18,0.00
2014-2-3,39.7,30.2,14.7,24.8,14.4,7.7,84,54,39,29.56,29.33,6,1,9,0.00
2014-2-4,51.4,38.3,27.3,48.9,29.2,13.4,91,71,41,29.42,29.15,10,2,17,0.00
2014-2-5,27.0,17.1,11.1,17.1,1.6,-5.0,66,50,43,29.89,29.42,12,6,17,0.00
2014-2-6,20.7,14.8,10.4,2.6,-1.8,-5.8,55,46,45,29.89,29.68,10,4,15,1.61
2014-2-7,34.7,23.1,15.1,30.2,8.8,-2.2,84,54,45,29.68,29.44,7,2,11,0.00
2014-2-8,65.7,44.2,34.5,63.2,40.9,30.2,94,88,82,29.44,29.30,6,1,10,0.00
2014-2-9,69.6,39.0,25.9,67.8,32.7,16.2,95,78,63,29.53,29.36,10,4,15,0.00
2014-2-10,30.2,23.8,19.8,17.1,9.1,3.7,69,54,43,29.65,29.53,12,6,17,0.00
2014-2-11,39.6,25.5,17.6,14.8,8.1,3.6,77,49,30,29.68,29.44,8,2,13,0.00
2014-2-12,51.8,33.3,17.4,27.5,18.4,6.8,78,57,32,29.44,29.24,8,1,14,0.00
2014-2-13,63.9,46.0,32.5,48.1,28.9,22.6,92,57,25,29.27,29.03,8,1,10,0.00
2014-2-14,61.3,48.1,33.8,34.7,27.2,19.4,69,47,27,29.36,28.94,13,4,23,0.00
2014-2-15,68.7,45.0,27.7,30.3,25.0,18.9,83,50,23,29.36,29.15,12,2,17,0.00
2014-2-16,66.9,53.5,34.7,46.0,30.2,24.8,79,45,23,29.36,29.06,9,2,14,0.00
2014-2-17,68.2,55.7,35.4,59.6,29.9,18.3,83,40,22,29.39,29.00,14,4,20,0.00
2014-2-18,75.6,52.7,30.2,32.7,27.5,20.2,78,42,21,29.33,29.03,11,2,17,0.00
2014-2-19,114.4,69.8,43.2,99.9,51.4,22.2,93,57,28,29.24,28.80,13,3,19,0.00
2014-2-20,73.8,56.3,38.5,70.3,34.5,11.4,89,47,26,29.30,28.68,15,6,25,0.00
2014-2-21,67.1,49.4,25.0,21.6,16.6,11.9,63,29,17,29.33,29.18,10,2,14,0.00
2014-2-22,73.9,54.9,37.8,32.2,25.4,17.1,49,33,21,29.21,29.06,10,2,15,0.00
2014-2-23,55.2,43.6,34.7,29.3,21.4,13.4,64,42,28,29.50,29.15,14,7,22,0.00
2014-2-24,52.3,41.8,27.3,22.7,18.6,12.4,60,40,31,29.53,29.33,8,2,9,0.00
2014-2-25,46.6,38.3,27.0,23.2,15.7,6.4,45,39,34,29.62,29.42,16,7,25,0.00
2014-2-26,39.7,26.4,18.3,9.3,4.2,-0.1,56,39,26,29.65,29.36,15,4,20,0.00
2014-2-27,55.8,40.5,17.1,20.9,14.2,1.2,61,36,25,29.36,29.09,5,1,8,0.00
2014-2-28,53.2,49.5,37.9,39.5,27.5,20.1,84,44,27,29.24,28.97,8,4,12,0.00
2014-3-1,50.0,45.9,33.6,40.8,31.2,20.4,86,57,48,29.44,29.24,13,6,15,0.00
2014-3-2,33.6,18.8,8.1,29.9,12.3,0.3,87,75,62,29.68,29.42,16,10,23,0.00
2014-3-3,26.8,14.4,5.5,5.4,0.4,-4.1,70,55,35,29.80,29.53,12,4,17,0.00
2014-3-4,47.1,29.5,11.3,24.5,13.1,-1.5,74,51,37,29.53,29.30,6,1,9,0.00
2014-3-5,72.0,45.8,32.0,70.1,33.1,20.8,94,65,37,29.47,29.30,8,1,11,0.00
2014-3-6,77.7,48.9,38.8,76.2,35.0,26.7,98,62,34,29.50,29.24,6,1,7,0.00
2014-3-7,61.9,50.1,39.9,46.3,32.9,27.8,87,55,30,29.24,29.06,10,3,15,0.00
2014-3-8,65.8,48.5,38.3,64.1,43.6,30.8,95,83,58,29.56,29.21,12,4,19,0.30
2014-3-9,63.7,52.8,41.2,58.3,39.4,27.9,94,65,34,29.59,29.36,6,1,8,0.00
2014-3-10,80.1,63.0,47.7,56.5,37.1,25.3,92,47,17,29.36,29.03,10,3,17,0.00
2014-3-11,84.0,65.5,48.6,69.5,42.8,29.7,91,48,21,29.21,28.74,17,5,25,0.00
2014-3-12,59.9,48.2,39.2,30.4,23.1,19.2,57,39,25,29.53,29.18,17,6,21,0.00
2014-3-13,71.6,56.0,35.8,37.0,23.0,18.5,84,31,16,29.47,29.24,10,3,12,0.00
2014-3-14,77.2,60.8,48.4,33.2,28.4,21.4,53,30,20,29.27,29.18,8,2,10,0.00
2014-3-15,83.7,58.5,43.3,81.4,49.2,30.5,93,72,51,29.24,29.00,10,2,15,0.20
2014-3-16,93.6,43.4,34.7,90.9,33.4,22.6,93,69,50,29.39,29.03,17,8,26,1.04
2014-3-17,59.2,44.8,29.5,46.6,24.5,16.9,91,49,27,29.36,28.88,8,2,12,0.00
2014-3-18,77.9,58.6,45.0,35.1,30.0,22.3,49,35,21,29.18,28.74,15,7,26,0.00
2014-3-19,64.4,49.2,37.6,28.2,25.0,19.2,67,41,24,29.47,29.18,12,4,17,0.00
2014-3-20,73.4,55.3,34.9,40.9,29.5,23.2,87,44,19,29.44,29.21,11,2,17,0.00
2014-3-21,81.3,63.0,50.0,45.5,32.4,25.6,41,32,23,29.30,29.06,15,5,20,0.00
2014-3-22,59.4,51.0,43.0,29.9,25.3,17.4,55,37,26,29.53,29.30,14,8,20,0.00
2014-3-23,45.9,39.3,35.6,17.7,11.8,9.2,33,32,31,29.62,29.53,14,9,23,0.00
2014-3-29,70.7,58.3,35.6,36.1,32.5,9.4,68,40,24,29.62,29.44,10,2,10,0.00
2014-3-30,77.9,60.6,41.0,40.9,33.5,30.3,82,41,21,29.47,29.15,12,4,19,0.00
2014-3-31,77.4,64.7,56.1,55.3,43.7,30.4,73,48,33,29.27,29.03,12,5,18,0.00
2014-4-1,63.5,54.2,47.3,39.1,29.9,22.4,56,40,32,29.33,29.12,11,4,19,0.00
2014-4-2,83.1,70.6,50.2,73.0,56.2,36.1,87,62,43,29.12,28.91,11,5,17,0.00
2014-4-3,87.1,73.6,46.9,67.9,54.1,30.6,80,54,21,29.21,28.85,12,6,19,0.00
2014-4-4,62.6,49.5,39.7,32.0,26.1,19.0,69,42,24,29.42,29.21,11,4,17,0.00
2014-4-5,68.2,53.3,36.9,41.3,30.0,24.0,86,46,24,29.44,29.24,7,2,11,0.00
2014-4-6,73.4,56.6,48.6,71.2,47.3,32.6,94,73,44,29.33,29.09,6,1,8,0.09
2014-4-7,99.3,70.1,51.4,96.6,58.5,35.6,98,70,32,29.21,29.06,12,2,17,0.19
2014-4-8,67.5,55.5,41.0,39.7,29.8,18.0,68,40,22,29.39,29.21,17,4,26,0.00
2014-4-9,80.6,61.6,37.8,43.3,34.3,27.0,86,43,20,29.44,29.15,11,4,15,0.00
2014-4-10,90.1,74.6,64.2,46.0,41.5,37.6,44,32,19,29.21,29.06,12,5,18,0.00
2014-4-11,81.9,67.9,52.9,57.9,47.9,39.0,75,50,35,29.30,29.18,9,3,13,0.00
2014-4-12,85.5,73.7,65.7,65.8,55.6,48.6,84,56,30,29.18,28.94,13,6,19,0.00
2014-4-13,83.3,68.9,45.3,76.7,55.9,35.4,89,65,28,29.12,28.74,14,7,20,0.22
2014-4-14,51.1,43.1,30.0,42.1,26.1,13.4,83,53,29,29.47,29.12,14,6,23,0.00
2014-4-15,67.5,50.4,29.1,36.0,25.0,19.5,88,43,20,29.50,29.33,8,2,10,0.00
2014-4-16,68.4,56.4,44.6,31.0,28.0,24.3,47,34,25,29.33,29.21,14,5,24,0.00
2014-4-17,67.1,54.9,44.4,41.7,35.6,29.8,76,50,33,29.50,29.33,10,2,14,0.00
2014-4-18,79.0,61.7,46.9,47.0,39.3,33.6,86,50,23,29.53,29.39,6,1,9,0.00
2014-4-19,81.0,66.6,52.2,56.0,44.5,39.2,87,50,24,29.47,29.33,11,2,14,0.00
2014-4-20,86.7,70.0,57.7,83.4,55.5,44.7,90,62,36,29.39,29.27,8,2,10,0.00
2014-4-21,112.5,87.4,67.8,99.9,80.9,52.8,92,83,45,29.30,29.24,5,0,7,1.03
2014-4-22,140.0,78.7,54.5,99.9,51.8,30.7,98,50,21,29.39,29.21,7,2,9,0.00
2014-4-23,86.4,71.6,54.0,60.6,48.9,38.7,87,49,28,29.24,29.00,10,3,16,0.00
2014-4-24,89.2,68.0,50.0,85.6,51.5,33.1,89,58,29,29.21,28.88,13,5,21,0.12
2014-4-25,83.3,71.2,50.2,80.7,44.3,32.1,93,46,20,29.30,29.12,8,2,13,0.12
2014-4-26,87.1,73.3,58.3,63.4,47.8,34.8,64,41,30,29.15,28.85,13,5,24,0.00
2014-4-27,96.1,77.0,65.5,92.5,51.9,30.8,90,48,19,28.88,28.65,13,5,18,0.76
2014-4-28,75.0,64.7,55.0,37.7,34.3,30.0,46,33,23,28.94,28.68,9,3,15,0.00
2014-4-29,59.2,54.8,48.9,34.7,31.6,28.8,55,41,34,29.24,28.91,10,2,17,0.00
2014-4-30,64.4,53.7,42.6,35.8,29.1,21.6,67,41,25,29.36,29.21,9,3,17,0.00
2014-5-1,71.2,54.5,38.5,39.4,30.1,25.8,76,43,24,29.39,29.27,8,2,17,0.00
2014-5-2,77.0,62.8,46.4,67.4,38.9,25.3,93,49,20,29.30,29.18,7,1,13,0.00
2014-5-3,84.6,62.1,47.8,46.7,40.8,33.5,84,55,19,29.27,29.18,7,1,10,0.00
2014-5-4,84.4,79.0,64.2,60.3,38.5,36.6,87,24,20,29.18,29.06,9,5,12,0.00
2014-5-5,93.0,79.3,67.1,54.7,45.6,36.3,50,31,20,29.09,28.94,9,4,15,0.00
2014-5-6,88.5,77.2,66.6,59.2,55.4,51.7,64,48,33,29.00,28.85,10,4,16,0.00
2014-5-7,88.2,76.5,69.8,61.7,59.3,56.6,72,56,38,29.09,28.94,12,5,15,0.00
2014-5-8,97.0,76.6,72.0,93.5,67.5,58.0,91,74,52,29.12,28.97,9,3,16,0.12
2014-5-9,92.3,75.3,61.3,89.3,57.7,46.4,91,58,30,29.21,29.09,8,1,15,0.00
2014-5-10,93.7,80.6,66.2,90.3,63.1,53.4,90,59,31,29.15,29.00,10,4,15,0.00
2014-5-11,75.2,75.2,75.0,68.2,68.0,66.8,79,79,76,29.06,29.06,5,1,9,0.00
2014-5-12,91.6,75.8,56.3,88.6,69.7,45.5,95,82,61,29.39,29.06,9,2,15,0.91
2014-5-13,67.8,58.1,51.4,46.5,39.6,36.0,68,51,36,29.53,29.36,10,3,15,0.00
2014-5-14,68.0,58.9,48.2,53.3,37.1,25.1,83,48,24,29.50,29.44,10,2,15,0.00
2014-5-15,71.6,59.3,46.2,63.3,40.2,30.5,92,54,30,29.44,29.39,10,2,17,0.00
2014-5-16,76.5,65.4,48.0,72.1,45.1,34.9,94,54,25,29.39,29.24,10,2,14,0.08
2014-5-17,72.5,63.2,55.8,60.2,50.9,44.3,89,67,38,29.42,29.30,7,2,10,0.09
2014-5-18,77.5,69.8,58.8,72.7,59.0,48.1,92,71,42,29.42,29.24,8,3,14,0.00
2014-5-19,84.4,77.7,69.4,81.1,60.0,49.6,91,58,31,29.27,29.09,12,6,20,0.00
2014-5-20,88.5,78.0,69.6,60.2,57.5,53.2,68,51,32,29.21,29.12,10,5,16,0.00
2014-5-21,87.8,77.9,72.3,62.8,60.9,58.3,68,57,40,29.30,29.15,9,3,14,0.00
2014-5-22,89.1,80.1,70.5,84.8,60.7,51.6,91,56,29,29.36,29.27,8,2,12,0.00
2014-5-23,88.2,78.6,70.9,72.8,60.9,49.5,86,58,28,29.36,29.27,6,1,11,0.00
2014-5-24,88.5,78.6,73.4,73.4,63.0,50.0,86,62,28,29.33,29.21,8,2,14,0.00
2014-5-25,105.4,83.6,73.0,99.9,70.8,57.2,91,68,39,29.30,29.18,9,2,20,0.46
2014-5-26,140.0,114.4,75.7,99.9,93.1,66.6,90,84,67,29.33,29.24,6,0,9,0.96
2014-5-27,140.0,111.2,78.8,99.9,92.5,71.0,89,85,77,29.24,29.15,4,0,8,0.12
2014-5-28,136.0,94.0,73.4,99.9,73.6,52.6,92,65,33,29.27,29.18,6,1,10,0.17
2014-5-29,122.7,89.2,74.7,99.9,71.4,54.5,91,62,32,29.24,29.12,8,1,13,0.17
2014-5-30,89.1,80.3,75.2,85.0,68.4,57.9,88,69,39,29.24,29.18,8,1,12,0.00
2014-5-31,88.3,82.0,76.1,82.9,70.0,58.3,87,69,39,29.30,29.21,7,1,10,0.00
2014-6-1,113.7,87.7,78.1,99.9,75.9,60.8,90,71,43,29.27,29.06,8,2,15,0.00
2014-6-2,139.3,92.7,78.8,99.9,79.1,63.8,90,73,45,29.30,29.12,8,2,12,1.36
2014-6-3,104.7,89.5,79.0,99.9,74.4,62.2,89,63,40,29.30,29.03,8,2,13,0.00
2014-6-4,93.2,85.0,77.7,77.2,69.4,64.7,84,61,41,29.15,29.00,10,3,17,0.00
2014-6-5,101.1,84.4,78.4,97.3,72.1,64.2,90,68,42,29.18,29.00,8,2,13,0.05
2014-6-6,108.1,85.0,77.0,99.9,74.5,59.4,90,73,42,29.27,29.09,10,1,13,0.37
2014-6-7,140.0,82.2,76.1,99.9,61.1,57.1,83,50,38,29.24,29.12,7,2,10,0.00
2014-6-8,114.6,93.5,71.1,99.9,84.9,59.7,91,83,62,29.30,29.15,7,1,12,0.61
2014-6-9,126.7,90.5,69.1,99.9,75.1,49.3,90,68,37,29.15,28.91,6,1,10,0.14
2014-6-10,87.3,73.4,66.7,83.9,60.3,49.7,91,66,37,29.12,28.94,10,2,15,0.00
2014-6-11,116.8,87.6,72.5,99.9,70.5,52.7,91,62,33,29.18,29.03,7,1,10,0.00
2014-6-12,97.5,78.6,70.0,94.3,60.0,53.1,91,55,36,29.30,29.03,9,3,13,0.00
2014-6-13,95.4,77.5,66.4,92.1,57.0,47.1,94,53,28,29.36,29.18,6,1,9,0.00
2014-6-14,87.3,78.1,68.2,72.0,63.8,55.4,79,63,47,29.21,29.00,10,5,17,0.00
2014-6-15,89.8,82.0,75.9,86.4,72.5,67.5,91,74,53,29.21,29.00,9,3,14,0.10
2014-6-16,90.7,84.4,78.6,81.5,68.2,61.3,87,60,39,29.27,29.12,10,5,19,0.00
2014-6-17,91.0,84.0,79.2,73.1,68.8,65.2,79,62,44,29.24,29.12,10,5,15,0.00
2014-6-18,91.8,85.4,79.3,82.4,69.7,62.1,86,62,39,29.21,29.15,9,4,14,0.00
2014-6-19,92.3,82.0,76.6,88.6,71.9,64.6,89,72,51,29.33,29.21,7,2,10,0.00
2014-6-20,99.7,88.8,79.9,96.2,73.1,59.2,90,63,32,29.36,29.24,7,1,9,0.00
2014-6-21,101.3,89.2,79.3,97.8,72.2,57.4,90,61,30,29.30,29.15,6,1,10,0.00
2014-6-22,96.1,84.9,75.6,92.7,69.9,58.6,90,63,39,29.21,29.06,10,2,14,0.00
2014-6-23,110.8,84.1,73.0,99.9,74.0,56.8,91,74,40,29.24,29.09,9,2,12,0.19
2014-6-24,110.7,88.4,72.9,99.9,71.0,55.9,91,61,31,29.33,29.21,8,0,12,0.19
2014-6-25,92.5,82.8,73.9,81.5,66.3,57.0,87,61,32,29.33,29.21,10,1,19,0.00
2014-6-26,100.6,86.3,79.3,96.7,74.0,61.0,90,69,41,29.30,29.12,8,2,10,0.00
2014-6-27,87.6,81.8,78.3,83.3,71.1,64.4,87,71,49,29.18,29.06,12,4,18,0.00
2014-6-28,111.4,86.8,73.2,99.9,78.5,58.8,91,78,53,29.21,29.09,8,3,15,0.59
2014-6-29,97.2,89.2,80.6,93.0,76.0,65.7,88,67,44,29.24,29.12,9,3,13,0.00
2014-6-30,94.8,86.2,80.1,76.3,66.4,56.5,83,55,29,29.18,29.06,10,4,15,0.00
2014-7-1,93.7,82.7,74.8,73.9,62.1,53.1,82,53,27,29.30,29.06,8,2,12,0.00
2014-7-2,86.0,77.3,66.6,68.8,53.6,44.4,79,47,29,29.44,29.27,9,3,11,0.00
2014-7-3,89.1,74.7,62.8,56.7,47.9,42.4,68,41,22,29.50,29.39,7,1,10,0.00
2014-7-4,91.2,79.5,67.1,76.0,61.8,56.1,90,58,34,29.50,29.39,8,2,12,0.00
2014-7-5,91.8,83.0,75.9,79.2,67.4,61.5,87,62,39,29.47,29.27,8,3,13,0.00
2014-7-6,97.9,85.8,75.7,69.4,65.5,60.3,79,54,30,29.30,29.15,8,3,13,0.00
2014-7-7,100.9,88.1,75.9,66.7,62.8,58.6,72,46,26,29.21,29.09,8,3,13,0.00
2014-7-8,97.5,85.2,74.5,64.6,60.3,53.6,59,44,29,29.30,29.12,9,2,13,0.00
2014-7-9,94.6,82.1,71.1,70.2,59.7,52.0,85,51,27,29.36,29.24,5,1,10,0.00
2014-7-10,139.8,92.0,76.3,99.9,82.8,65.2,90,83,64,29.42,29.24,13,2,22,1.57
2014-7-11,106.3,91.9,79.3,99.9,73.1,58.0,89,58,30,29.36,29.27,7,2,10,0.00
2014-7-12,97.7,85.5,74.5,66.8,60.3,55.6,73,46,26,29.39,29.27,7,2,9,0.00
2014-7-14,79.2,76.9,75.2,61.1,57.4,53.1,57,51,46,29.33,29.30,7,4,10,0.00
2014-7-15,81.0,72.2,63.7,58.6,48.4,42.2,79,45,30,29.42,29.30,10,3,14,0.00
2014-7-16,140.0,84.5,65.1,99.9,70.1,46.6,90,73,38,29.36,29.30,5,0,8,0.33
2014-7-17,140.0,117.2,82.8,99.9,95.2,78.1,87,84,81,29.33,29.27,6,1,11,0.36
2014-7-18,100.6,79.6,68.7,96.0,69.2,53.0,89,72,44,29.36,29.27,5,1,9,0.36
2014-7-19,139.8,94.0,73.2,99.9,74.3,54.5,88,67,42,29.33,29.24,5,0,8,0.00
2014-7-20,125.6,87.2,74.8,99.9,73.0,58.1,88,67,44,29.33,29.21,8,2,13,0.00
2014-7-21,105.1,89.9,77.5,99.9,76.9,66.6,88,68,44,29.33,29.24,7,1,10,0.00
2014-7-22,104.9,91.9,81.7,99.9,76.9,65.7,88,65,36,29.36,29.27,5,0,8,0.00
2014-7-23,110.7,90.3,76.5,99.9,79.4,65.1,88,73,40,29.39,29.24,9,1,13,0.05
2014-7-24,138.6,95.1,80.2,99.9,77.6,63.8,89,66,40,29.36,29.24,6,1,8,0.05
2014-7-25,98.8,89.5,82.0,94.2,74.0,63.9,88,63,37,29.27,29.12,8,3,11,0.00
2014-7-26,100.4,89.3,81.1,77.9,67.8,59.8,82,53,28,29.24,29.15,7,2,10,0.00
2014-7-27,95.0,85.5,76.1,72.2,63.3,50.9,77,50,29,29.36,29.18,11,2,17,0.00
2014-7-28,90.3,79.9,70.0,76.7,55.1,48.5,84,45,27,29.47,29.36,8,2,11,0.00
2014-7-29,93.7,83.8,69.8,90.0,61.4,51.3,89,52,26,29.44,29.30,7,1,10,0.00
2014-7-30,138.9,111.0,74.3,99.9,86.0,60.3,89,78,56,29.36,29.27,6,0,8,1.57
2014-7-31,138.9,113.2,77.5,99.9,89.8,65.4,90,81,66,29.36,29.30,4,0,6,0.14
2014-8-1,140.0,99.4,73.9,99.9,75.2,55.6,86,64,35,29.36,29.27,5,0,8,0.00
2014-8-2,139.8,98.2,74.8,99.9,72.4,53.1,89,58,29,29.39,29.33,6,0,9,0.00
2014-8-3,140.0,95.0,77.5,99.9,72.5,54.6,86,58,29,29.42,29.30,5,0,6,0.00
2014-8-4,135.9,93.6,77.0,99.9,70.4,55.4,86,55,28,29.39,29.27,6,0,8,0.00
2014-8-17,83.5,81.4,79.7,69.0,67.4,65.4,70,63,55,29.33,29.18,4,0,5,0.00
2014-8-18,91.9,84.3,76.3,83.6,70.2,56.1,85,64,41,29.21,29.06,9,2,15,0.00
2014-8-19,101.5,85.9,71.6,69.2,61.2,56.9,77,47,25,29.18,29.06,7,1,10,0.00
2014-8-20,96.4,85.8,78.1,80.1,64.3,52.1,85,52,26,29.24,29.15,9,3,15,0.00
2014-8-21,97.7,87.4,79.5,76.3,67.5,60.3,81,54,30,29.27,29.18,8,3,14,0.00
2014-8-22,102.4,88.9,77.7,69.5,64.1,58.0,71,47,25,29.27,29.18,8,2,12,0.00
2014-8-23,102.2,88.5,77.9,75.6,61.4,49.1,83,46,18,29.24,29.12,8,2,12,0.00
2014-8-24,102.7,88.1,74.8,69.3,61.7,54.8,78,45,21,29.24,29.12,8,2,15,0.00
2014-8-25,101.7,89.1,77.5,80.9,63.6,55.0,85,48,23,29.27,29.18,8,1,12,0.00
2014-8-26,99.5,88.3,77.9,81.8,65.5,57.4,85,51,26,29.36,29.24,6,1,11,0.00
2014-8-27,97.7,87.1,76.6,82.0,64.7,56.2,86,51,26,29.39,29.24,7,1,10,0.00
2014-8-28,96.1,85.3,75.7,71.6,60.3,52.6,80,47,25,29.27,29.12,8,2,12,0.00
2014-8-29,104.7,85.3,75.2,99.9,66.3,53.2,87,57,28,29.21,29.12,6,1,10,0.03
2014-8-30,100.6,89.5,77.9,96.0,70.8,53.7,87,59,23,29.24,29.12,9,1,12,0.00
2014-8-31,99.5,89.1,78.8,94.5,67.9,56.5,87,54,28,29.24,29.06,9,3,15,0.00
2014-9-1,97.9,85.1,73.6,70.2,65.7,60.6,81,55,31,29.24,29.06,11,4,17,0.00
2014-9-2,139.6,100.9,74.8,99.9,80.8,62.1,87,73,51,29.33,29.12,10,2,14,1.21
2014-9-3,102.4,90.6,81.1,96.6,74.1,63.0,85,61,35,29.27,29.12,8,2,12,0.00
2014-9-4,97.9,87.1,79.0,74.9,63.7,55.0,80,49,26,29.30,29.18,8,2,12,0.00
2014-9-5,99.0,85.4,70.9,70.6,62.9,56.5,77,51,27,29.42,29.24,11,2,15,0.00
2014-9-6,137.8,95.0,70.0,99.9,79.9,55.9,90,79,56,29.47,29.39,9,3,13,0.38
2014-9-7,94.6,79.2,68.2,89.1,66.1,53.2,87,67,41,29.44,29.30,6,1,8,0.00
2014-9-8,140.0,99.9,79.2,99.9,78.1,58.6,86,65,35,29.33,29.18,6,1,8,0.00
2014-9-9,96.8,88.4,80.1,85.4,68.7,59.1,85,56,30,29.24,29.00,8,3,11,0.00
2014-9-10,93.0,83.0,72.1,66.2,62.9,59.7,70,52,36,29.24,28.97,10,5,13,0.00
2014-9-11,77.4,70.4,64.9,72.5,59.0,53.0,85,68,51,29.42,29.24,10,5,13,0.00
2014-9-12,118.9,70.6,56.8,99.9,62.3,43.2,89,77,59,29.62,29.39,11,5,15,0.08
2014-9-13,68.0,58.5,53.2,64.0,44.0,38.6,87,59,40,29.65,29.47,9,2,11,0.00
2014-9-14,102.2,77.6,66.4,97.0,65.1,50.5,89,68,40,29.53,29.36,8,1,10,0.00
2014-9-15,89.2,81.3,73.2,84.5,69.2,59.0,86,69,39,29.42,29.33,8,1,8,0.00
2014-9-16,93.2,79.3,72.0,88.2,69.5,57.5,87,73,47,29.42,29.27,6,1,8,0.00
2014-9-17,140.0,101.6,76.8,99.9,77.5,60.0,88,62,34,29.30,29.09,8,1,10,0.00
2014-9-18,106.7,82.6,71.6,99.9,70.9,54.3,86,70,33,29.30,29.15,10,1,14,0.57
2014-9-19,140.0,102.2,79.3,99.9,85.9,62.0,87,77,48,29.30,29.21,5,1,9,0.00
2014-9-20,140.0,102.4,76.8,99.9,78.3,57.6,87,65,35,29.33,29.21,6,1,8,0.00
2014-9-21,103.3,81.3,64.6,97.9,61.8,40.9,87,57,23,29.44,29.30,9,2,11,0.00
2014-9-22,65.7,65.7,65.7,47.0,47.0,47.0,51,51,51,29.44,29.44,0,0,0,0.00
2014-10-8,77.9,76.8,65.7,71.6,69.2,47.0,81,78,51,29.44,29.21,4,1,7,0.00
2014-10-9,99.0,85.7,76.3,93.6,72.2,58.8,86,66,38,29.24,29.12,7,2,10,0.00
2014-10-10,140.0,99.8,66.9,99.9,83.2,62.3,89,81,64,29.33,29.09,10,3,17,1.00
2014-10-11,112.8,74.6,59.2,99.9,69.4,50.9,92,84,75,29.39,29.27,9,3,15,0.12
2014-10-12,102.7,77.9,61.2,96.9,71.5,51.5,88,81,63,29.27,28.88,9,2,15,0.00
2014-10-13,140.0,111.5,57.2,99.9,84.7,40.1,90,75,50,29.12,28.77,9,1,15,1.65
2014-10-14,71.2,60.3,49.5,54.2,37.2,33.8,84,44,27,29.30,29.09,10,2,17,0.00
2014-10-15,88.3,68.8,55.4,83.4,51.6,33.1,89,61,23,29.39,29.21,6,0,8,0.00
2014-10-16,105.3,77.7,56.8,99.0,57.8,41.5,88,56,22,29.21,29.00,8,2,12,0.00
2014-10-17,85.3,68.0,59.0,79.9,47.1,37.4,89,51,24,29.33,29.09,8,2,11,0.00
2014-10-18,70.3,60.4,53.6,57.1,44.0,37.4,86,57,33,29.47,29.33,6,1,10,0.00
2014-10-19,106.7,73.0,60.3,99.9,59.4,44.2,89,65,35,29.47,29.30,6,1,10,0.00
2014-10-20,101.8,72.9,60.3,95.3,61.0,48.3,86,68,41,29.36,29.27,4,0,6,0.08
2014-10-21,129.0,87.2,69.8,99.9,72.5,52.3,89,68,35,29.39,29.27,5,0,8,0.00
2014-10-22,131.2,85.9,64.8,99.9,68.8,48.2,90,63,36,29.44,29.33,8,1,10,0.00
2014-10-23,89.8,71.3,64.9,84.6,63.7,52.2,87,77,54,29.44,29.33,7,1,10,0.10
2014-10-24,93.2,78.1,63.7,87.8,64.7,49.6,86,66,40,29.39,29.30,6,1,10,0.00
2014-10-25,97.9,78.8,70.5,92.2,70.0,52.5,87,76,33,29.36,29.24,4,0,6,0.00
2014-10-26,109.4,81.6,71.4,99.9,61.4,46.7,88,54,28,29.24,29.00,10,3,14,0.00
2014-10-27,82.8,73.8,67.6,55.7,50.2,44.0,53,44,35,29.15,28.97,9,4,15,0.00
2014-10-28,70.7,61.6,52.0,65.1,39.9,32.6,83,47,28,29.42,29.15,11,3,15,0.03
2014-11-1,52.0,47.8,45.9,41.8,23.8,21.1,68,39,33,29.53,29.42,6,1,9,0.00
2014-11-2,63.3,52.3,42.1,34.4,28.5,24.6,54,40,32,29.53,29.39,10,4,19,0.00
2014-11-3,82.4,61.7,50.5,77.2,45.7,28.0,85,57,37,29.42,29.27,9,3,14,0.00
2014-11-4,123.8,89.4,55.4,99.9,81.5,49.0,92,84,78,29.53,29.30,11,2,12,1.03
2014-11-5,139.8,85.6,48.0,99.9,68.6,31.4,88,70,34,29.50,29.42,4,0,6,0.00
2014-11-6,111.0,65.8,41.7,99.9,45.7,20.9,97,54,23,29.65,29.47,9,2,15,0.00
2014-11-7,81.3,61.1,49.1,76.7,40.3,27.1,89,52,24,29.56,29.21,9,2,14,0.00
2014-11-8,61.2,52.9,39.9,50.5,33.9,24.0,88,52,30,29.44,29.24,13,2,23,0.00
2014-11-9,83.1,63.5,47.1,78.3,43.0,28.8,89,52,25,29.39,28.97,8,3,12,0.00
2014-11-10,78.8,63.6,41.5,45.9,39.6,24.6,61,43,29,29.12,28.74,13,5,19,0.00
2014-11-11,43.9,37.2,29.5,25.0,15.4,7.3,64,41,33,29.62,29.12,13,6,20,0.00
2014-11-12,29.5,26.0,24.1,9.0,7.8,6.3,49,45,41,29.77,29.62,10,6,15,0.00
2014-11-18,46.9,42.0,26.2,17.9,15.5,6.8,43,34,30,29.77,29.36,6,1,8,0.00
2014-11-19,61.2,45.4,36.1,26.0,19.7,13.5,55,37,25,29.44,29.30,7,1,10,0.00
2014-11-20,61.7,44.2,28.0,33.8,25.4,18.1,75,49,33,29.44,29.30,7,1,10,0.00
2014-11-21,103.8,62.9,39.9,96.7,54.4,25.1,87,74,52,29.39,29.30,9,3,13,0.28
2014-11-22,137.5,94.5,70.0,99.9,85.6,65.6,88,84,76,29.33,28.94,13,4,18,0.34
2014-11-23,111.2,73.4,46.4,99.9,63.7,35.5,89,73,47,29.00,28.59,13,2,20,0.04
2014-11-24,58.5,44.7,33.1,43.2,25.3,15.7,81,50,25,29.42,29.00,9,1,16,0.00
2014-11-25,54.5,43.2,33.1,40.2,22.8,11.7,88,49,26,29.56,29.27,6,1,8,0.00
2014-11-26,57.2,44.8,35.6,27.6,22.8,17.5,66,43,30,29.68,29.24,10,3,17,0.00
2014-11-27,49.6,38.5,26.2,23.6,19.5,16.9,76,47,30,29.80,29.44,10,2,13,0.00
2014-11-28,67.1,53.1,35.6,47.5,32.4,20.2,71,47,30,29.50,29.09,10,3,17,0.00
2014-11-29,78.1,65.2,54.7,50.0,40.6,35.2,64,43,22,29.09,28.94,11,6,19,0.00
2014-11-30,72.7,55.0,32.4,55.3,35.3,11.3,72,49,30,29.59,28.97,13,6,20,0.00
2014-12-1,32.5,29.5,28.0,11.5,7.7,5.5,43,39,36,29.80,29.59,14,6,18,0.00
2014-12-2,43.7,36.9,29.8,25.0,15.3,8.5,50,41,36,29.68,29.39,7,2,10,0.00
2014-12-3,79.7,49.7,39.4,75.1,38.6,24.0,89,67,44,29.56,29.42,6,1,9,0.00
2014-12-4,140.0,127.7,80.1,99.9,97.6,75.7,87,79,77,29.44,29.30,5,0,8,0.13
2014-12-5,140.0,124.4,66.0,99.9,93.2,62.0,90,79,76,29.53,29.24,9,1,13,0.03
2014-12-6,98.1,63.5,48.7,91.4,57.7,40.8,89,82,75,29.74,29.53,9,2,11,0.00
2014-12-7,73.9,59.0,51.6,69.8,54.5,46.6,89,85,81,29.71,29.50,0,0,0,0.00
2014-12-8,85.3,62.0,47.3,80.2,51.4,33.9,90,71,34,29.59,29.50,5,0,7,0.00
2014-12-9,103.1,52.7,37.2,96.0,38.6,23.2,98,60,37,29.68,29.53,9,2,12,0.00
2014-12-16,48.2,40.2,34.3,34.0,24.5,19.2,82,55,38,29.59,29.53,9,2,16,0.00
2014-12-17,95.4,52.7,35.4,90.1,45.4,22.5,89,76,54,29.59,29.42,6,1,8,0.32
2014-12-18,109.2,102.1,95.5,99.9,95.7,90.1,85,84,83,29.47,29.42,4,0,5,0.05
2014-12-21,109.2,71.0,63.5,99.9,67.0,59.7,89,87,83,29.47,28.94,8,5,11,0.00
2014-12-22,103.3,68.2,46.9,96.7,61.6,36.0,90,80,53,28.97,28.80,7,2,11,0.00
2014-12-23,62.2,46.6,40.8,58.6,31.8,22.1,89,58,37,29.18,28.97,8,3,13,0.00
2014-12-24,50.0,41.1,35.8,46.1,32.3,23.7,88,72,49,29.27,29.15,9,2,13,0.00
2014-12-25,61.2,49.2,35.1,44.2,27.5,22.4,89,48,25,29.18,29.06,13,4,19,0.00
2014-12-26,66.6,54.3,42.6,62.6,44.2,26.8,87,69,44,29.36,29.15,9,3,13,0.00
2014-12-27,62.4,41.0,30.0,59.1,34.5,19.9,91,78,55,29.56,29.36,8,2,13,0.00
2014-12-28,52.2,39.8,27.7,48.8,30.2,15.0,91,71,36,29.56,29.39,4,0,6,0.17
2014-12-29,54.0,43.1,34.5,50.7,28.5,17.1,91,60,37,29.62,29.39,7,2,11,0.00
2014-12-30,36.9,31.3,24.1,24.4,16.6,7.6,71,54,45,29.92,29.62,12,6,18,0.00
2014-12-31,26.1,23.7,19.8,7.9,4.8,1.4,49,44,42,29.92,29.65,9,3,13,0.00
2015-1-1,54.7,34.0,26.1,51.3,22.0,6.7,89,63,42,29.65,29.47,3,0,5,0.03
2015-1-2,100.6,72.4,54.9,94.9,68.5,51.5,91,88,84,29.50,29.24,5,0,9,0.05